Time;durP1;ratioP1;P1;durP2;ratioP2;P2;SDS_P1;SDS_P2;PMS_P1;PMS_P2;Temp;Humidity;BMP_temperature;BMP_pressure;BME280_temperature;BME280_humidity;BME280_pressure;Samples;Min_cycle;Max_cycle;Signal;HPM_P1;HPM_P2
2022/12/10 00:02:21;;;;;;;3.80;2.28;;;14.50;97.30;;;;;;7404843;19;19923;-42
2022/12/10 00:04:50;;;;;;;4.60;1.95;;;14.40;97.30;;;;;;7404836;19;19929;-43
2022/12/10 00:07:19;;;;;;;4.03;2.42;;;14.40;97.30;;;;;;7401925;19;19922;-43
2022/12/10 00:09:51;;;;;;;4.43;2.45;;;14.40;97.30;;;;;;7405948;19;19925;-42
2022/12/10 00:12:20;;;;;;;3.55;2.05;;;14.40;97.30;;;;;;7404253;19;19915;-42
2022/12/10 00:14:49;;;;;;;3.45;1.75;;;14.40;97.30;;;;;;7404838;19;19943;-42
2022/12/10 00:17:18;;;;;;;3.50;2.38;;;14.40;97.30;;;;;;7407767;19;19919;-42
2022/12/10 00:19:47;;;;;;;4.28;2.75;;;14.40;97.30;;;;;;7404328;19;20337;-41
2022/12/10 00:22:16;;;;;;;4.03;3.08;;;14.40;97.50;;;;;;7404626;19;19944;-43
2022/12/10 00:24:45;;;;;;;3.72;2.63;;;14.40;97.30;;;;;;7404448;19;19948;-43
2022/12/10 00:27:17;;;;;;;3.28;1.40;;;14.40;97.30;;;;;;7404224;19;19929;-42
2022/12/10 00:29:46;;;;;;;3.03;1.55;;;14.40;97.30;;;;;;7402232;19;19921;-43
2022/12/10 00:32:15;;;;;;;3.38;1.95;;;14.30;97.30;;;;;;7404500;19;19918;-43
2022/12/10 00:34:44;;;;;;;4.28;2.85;;;14.30;97.30;;;;;;7401921;19;19954;-45
2022/12/10 00:37:14;;;;;;;4.53;1.60;;;14.30;97.30;;;;;;7403333;19;19965;-42
2022/12/10 00:39:43;;;;;;;3.60;1.70;;;14.40;97.30;;;;;;7403268;19;19914;-42
2022/12/10 00:42:12;;;;;;;3.78;1.98;;;14.30;97.30;;;;;;7401767;19;19922;-42
2022/12/10 00:44:43;;;;;;;4.20;2.50;;;14.30;97.30;;;;;;7403477;19;19923;-43
2022/12/10 00:47:12;;;;;;;3.75;1.92;;;14.30;97.30;;;;;;7404155;19;19918;-44
2022/12/10 00:49:42;;;;;;;3.60;1.55;;;14.30;97.30;;;;;;7401659;19;19990;-42
2022/12/10 00:52:10;;;;;;;4.10;2.83;;;14.30;97.30;;;;;;7403200;19;19911;-42
2022/12/10 00:54:39;;;;;;;2.63;1.38;;;14.30;97.30;;;;;;7403181;19;19921;-42
2022/12/10 00:57:08;;;;;;;3.67;1.77;;;14.30;97.30;;;;;;7403554;19;19987;-41
2022/12/10 00:59:38;;;;;;;3.55;1.60;;;14.30;97.30;;;;;;7402968;19;19915;-42
2022/12/10 01:02:10;;;;;;;2.55;1.23;;;14.30;97.30;;;;;;7403259;19;20333;-42
2022/12/10 01:04:39;;;;;;;4.18;1.90;;;14.30;97.30;;;;;;7403174;19;19910;-41
2022/12/10 01:07:08;;;;;;;4.03;3.03;;;14.30;97.30;;;;;;7402956;19;19911;-42
2022/12/10 01:09:37;;;;;;;3.15;1.40;;;14.30;97.30;;;;;;7401252;19;19922;-42
2022/12/10 01:12:07;;;;;;;4.00;2.47;;;14.20;97.20;;;;;;7402368;19;19945;-43
2022/12/10 01:14:36;;;;;;;3.30;1.40;;;14.30;97.30;;;;;;7402640;19;20330;-42
2022/12/10 01:17:11;;;;;;;3.33;1.42;;;14.30;97.30;;;;;;7402438;19;20284;-42
2022/12/10 01:19:40;;;;;;;2.78;1.40;;;14.20;97.20;;;;;;7408841;19;20238;-43
2022/12/10 01:22:09;;;;;;;3.17;1.75;;;14.30;97.30;;;;;;7409207;19;19910;-45
2022/12/10 01:24:38;;;;;;;3.35;2.10;;;14.20;97.20;;;;;;7409265;19;19978;-42
2022/12/10 01:27:07;;;;;;;3.85;1.55;;;14.20;97.30;;;;;;7409199;19;19922;-42
2022/12/10 01:29:42;;;;;;;3.40;2.15;;;14.20;97.20;;;;;;7407128;19;19953;-43
2022/12/10 01:32:14;;;;;;;3.40;2.00;;;14.20;97.20;;;;;;7409077;19;20000;-43
2022/12/10 01:34:43;;;;;;;3.40;1.60;;;14.20;97.20;;;;;;7409486;19;20455;-43
2022/12/10 01:37:12;;;;;;;4.05;2.40;;;14.20;97.20;;;;;;7408164;19;19910;-43
2022/12/10 01:39:42;;;;;;;3.83;1.40;;;14.20;97.20;;;;;;7408849;19;19930;-43
2022/12/10 01:42:15;;;;;;;4.00;2.25;;;14.20;97.20;;;;;;7406688;19;20370;-43
2022/12/10 01:45:07;;;;;;;3.42;1.80;;;14.20;97.20;;;;;;7408730;19;19918;-43
2022/12/10 01:47:41;;;;;;;3.33;1.90;;;14.20;97.20;;;;;;7408905;19;19923;-41
2022/12/10 01:50:13;;;;;;;3.58;2.60;;;14.20;97.20;;;;;;7405845;19;19950;-43
2022/12/10 01:52:42;;;;;;;3.60;1.40;;;14.20;97.20;;;;;;7408514;19;19914;-41
2022/12/10 01:55:27;;;;;;;;;;;14.20;97.20;;;;;;7411446;19;20576;-43
2022/12/10 01:57:55;;;;;;;3.83;1.40;;;14.20;97.40;;;;;;7407737;19;19921;-42
2022/12/10 02:00:25;;;;;;;;;;;14.20;97.20;;;;;;7409080;19;19915;-42
2022/12/10 02:03:03;;;;;;;3.40;2.15;;;14.20;97.20;;;;;;7408228;19;19925;-45
2022/12/10 02:05:41;;;;;;;3.50;1.90;;;14.20;97.20;;;;;;7408056;19;20337;-45
2022/12/10 02:08:18;;;;;;;3.97;2.17;;;14.20;97.20;;;;;;7407563;19;19982;-45
2022/12/10 02:10:58;;;;;;;2.92;1.58;;;14.20;97.20;;;;;;7408229;19;19922;-45
2022/12/10 02:13:32;;;;;;;3.40;2.47;;;14.20;97.20;;;;;;7408934;19;19918;-44
2022/12/10 02:16:07;;;;;;;3.40;2.47;;;14.20;97.20;;;;;;7408033;19;19925;-41
2022/12/10 02:18:44;;;;;;;3.33;1.83;;;14.20;97.20;;;;;;7407518;19;19919;-45
2022/12/10 02:21:19;;;;;;;3.97;2.47;;;14.20;97.20;;;;;;7407232;19;19955;-44
2022/12/10 02:23:52;;;;;;;3.15;2.33;;;14.10;97.20;;;;;;7407532;19;19926;-43
2022/12/10 02:26:28;;;;;;;3.45;1.83;;;14.10;97.20;;;;;;7407416;19;19922;-44
2022/12/10 02:29:13;;;;;;;3.22;1.55;;;14.10;97.20;;;;;;7405841;19;19919;-45
2022/12/10 02:31:45;;;;;;;3.53;1.80;;;14.10;97.20;;;;;;7406909;19;20003;-42
2022/12/10 02:34:16;;;;;;;3.72;1.20;;;14.10;97.20;;;;;;7407086;19;19929;-44
2022/12/10 02:36:49;;;;;;;3.53;1.80;;;14.10;97.20;;;;;;7407270;19;19914;-42
2022/12/10 02:39:22;;;;;;;3.45;1.80;;;14.10;97.20;;;;;;7406888;19;19918;-42
2022/12/10 02:41:55;;;;;;;3.92;2.33;;;14.10;97.20;;;;;;7405621;19;19925;-43
2022/12/10 02:44:29;;;;;;;2.78;1.75;;;14.10;97.20;;;;;;7407565;19;19929;-42
2022/12/10 02:47:00;;;;;;;3.97;2.08;;;14.10;97.10;;;;;;7407014;19;19925;-42
2022/12/10 02:49:32;;;;;;;3.92;2.20;;;14.20;97.20;;;;;;7405872;19;19919;-44
2022/12/10 02:52:07;;;;;;;3.17;1.67;;;14.10;97.10;;;;;;7406613;19;19910;-43
2022/12/10 02:54:43;;;;;;;3.35;2.03;;;14.10;97.10;;;;;;7406773;19;20373;-46
2022/12/10 02:57:24;;;;;;;2.17;1.10;;;14.10;97.10;;;;;;7406765;19;19937;-45
2022/12/10 03:00:12;;;;;;;2.83;1.45;;;14.10;97.10;;;;;;7405721;19;20260;-42
2022/12/10 03:02:51;;;;;;;2.80;1.35;;;14.10;97.10;;;;;;7406262;19;20388;-44
2022/12/10 03:05:26;;;;;;;3.58;1.67;;;14.10;97.10;;;;;;7406635;19;19943;-42
2022/12/10 03:08:01;;;;;;;3.25;1.88;;;14.10;97.10;;;;;;7405972;19;19914;-45
2022/12/10 03:10:36;;;;;;;3.35;2.30;;;14.10;97.10;;;;;;7404319;19;19953;-42
2022/12/10 03:13:09;;;;;;;3.00;1.30;;;14.10;97.10;;;;;;7408484;19;19922;-42
2022/12/10 03:15:43;;;;;;;4.45;1.65;;;14.10;97.10;;;;;;7406430;19;19922;-41
2022/12/10 03:18:14;;;;;;;4.35;1.92;;;14.20;97.10;;;;;;7406331;19;19915;-43
2022/12/10 03:20:47;;;;;;;4.43;2.47;;;14.10;97.10;;;;;;7406348;19;19994;-43
2022/12/10 03:23:19;;;;;;;2.50;1.33;;;14.10;97.10;;;;;;7404509;19;20274;-44
2022/12/10 03:25:50;;;;;;;3.10;1.38;;;14.10;97.00;;;;;;7405810;19;19923;-43
2022/12/10 03:31:53;;;;;;;2.90;1.30;;;14.10;97.30;;;;;;7402964;19;20377;-42
2022/12/10 03:34:31;;;;;;;2.50;1.50;;;14.10;97.00;;;;;;7402548;19;20270;-42
2022/12/10 03:37:01;;;;;;;3.00;1.65;;;14.10;97.10;;;;;;7407412;19;19915;-43
2022/12/10 03:39:30;;;;;;;;;;;14.10;97.00;;;;;;7409815;19;19940;-42
2022/12/10 03:41:59;;;;;;;3.10;1.25;;;14.10;97.00;;;;;;7407247;19;19925;-45
2022/12/10 03:44:31;;;;;;;3.35;1.50;;;14.10;97.00;;;;;;7405278;19;19906;-41
2022/12/10 03:47:03;;;;;;;3.08;2.10;;;14.10;97.10;;;;;;7405298;19;19986;-42
2022/12/10 03:49:32;;;;;;;4.03;2.25;;;14.10;97.10;;;;;;7404292;19;19987;-42
2022/12/10 03:52:01;;;;;;;2.90;1.95;;;14.10;97.00;;;;;;7405016;19;19921;-43
2022/12/10 03:54:30;;;;;;;3.47;1.85;;;14.00;97.00;;;;;;7409042;19;20284;-42
2022/12/10 03:56:59;;;;;;;3.20;1.33;;;14.00;97.00;;;;;;7405443;19;19926;-43
2022/12/10 03:59:28;;;;;;;2.97;1.48;;;14.10;97.10;;;;;;7404697;19;19926;-43
2022/12/10 04:01:58;;;;;;;2.72;1.58;;;14.00;97.00;;;;;;7404373;19;19921;-42
2022/12/10 04:04:36;;;;;;;3.17;2.20;;;14.00;97.00;;;;;;7404813;19;19921;-43
2022/12/10 04:07:08;;;;;;;2.92;1.30;;;14.00;97.00;;;;;;7404936;19;20266;-42
2022/12/10 04:09:37;;;;;;;3.35;2.00;;;14.00;97.00;;;;;;7404223;19;20323;-43
2022/12/10 04:12:07;;;;;;;3.75;2.13;;;14.00;97.00;;;;;;7407041;19;19919;-42
2022/12/10 04:17:17;;;;;;;2.50;1.30;;;14.00;97.00;;;;;;7404496;19;20370;-44
2022/12/10 04:19:49;;;;;;;3.58;1.95;;;14.00;97.00;;;;;;7404606;19;19924;-42
2022/12/10 04:27:42;;;;;;;3.10;1.80;;;13.90;97.00;;;;;;7403867;19;19925;-43
2022/12/10 04:30:14;;;;;;;2.83;1.88;;;13.90;97.00;;;;;;7407210;19;20356;-42
2022/12/10 04:32:43;;;;;;;3.10;1.90;;;14.00;97.10;;;;;;7403979;19;19966;-41
2022/12/10 04:35:15;;;;;;;4.00;2.38;;;13.90;97.00;;;;;;7403845;19;19919;-42
2022/12/10 04:37:46;;;;;;;4.25;2.70;;;13.90;97.00;;;;;;7403982;19;19931;-43
2022/12/10 04:40:16;;;;;;;3.25;1.45;;;13.90;97.00;;;;;;7403883;19;20249;-42
2022/12/10 04:42:45;;;;;;;2.88;1.20;;;13.90;97.00;;;;;;7406355;19;19927;-42
2022/12/10 04:45:14;;;;;;;2.83;1.40;;;13.90;97.00;;;;;;7404086;19;19943;-42
2022/12/10 04:47:42;;;;;;;3.38;2.15;;;13.90;97.00;;;;;;7403653;19;19923;-43
2022/12/10 04:50:11;;;;;;;3.38;1.58;;;13.90;97.10;;;;;;7402784;19;19974;-43
2022/12/10 04:52:43;;;;;;;3.72;2.08;;;13.90;97.00;;;;;;7402640;19;19939;-42
2022/12/10 04:55:12;;;;;;;3.67;1.80;;;13.90;97.00;;;;;;7403756;19;20384;-44
2022/12/10 04:57:41;;;;;;;2.65;1.40;;;13.90;97.00;;;;;;7403266;19;20266;-43
2022/12/10 05:00:12;;;;;;;3.78;2.45;;;13.80;97.00;;;;;;7402513;19;19915;-44
2022/12/10 05:02:41;;;;;;;3.17;1.25;;;13.80;97.00;;;;;;7402819;19;19915;-43
2022/12/10 05:05:12;;;;;;;3.97;2.33;;;13.80;97.00;;;;;;7402834;19;20369;-43
2022/12/10 05:07:46;;;;;;;2.97;1.63;;;13.80;97.00;;;;;;7403244;19;19918;-42
2022/12/10 05:10:15;;;;;;;2.88;1.50;;;13.80;97.00;;;;;;7401857;19;19918;-42
2022/12/10 05:12:44;;;;;;;3.40;1.50;;;13.80;97.00;;;;;;7402971;19;19918;-43
2022/12/10 05:15:15;;;;;;;3.65;2.50;;;13.80;97.00;;;;;;7402576;19;19947;-45
2022/12/10 05:17:49;;;;;;;3.70;2.33;;;13.80;97.00;;;;;;7402549;19;19966;-45
2022/12/10 05:20:18;;;;;;;3.10;1.48;;;13.80;97.00;;;;;;7403087;19;19927;-43
2022/12/10 05:25:52;;;;;;;3.25;1.70;;;13.80;97.00;;;;;;7402623;19;19914;-43
2022/12/10 05:28:21;;;;;;;3.28;1.67;;;13.80;97.20;;;;;;7402418;19;19929;-43
2022/12/10 05:30:50;;;;;;;3.50;1.75;;;13.80;97.00;;;;;;7400972;19;19918;-43
2022/12/10 05:33:19;;;;;;;3.40;1.83;;;13.70;97.00;;;;;;7402148;19;20032;-42
2022/12/10 05:35:55;;;;;;;2.72;1.60;;;13.80;97.00;;;;;;7402367;19;19915;-43
2022/12/10 05:38:28;;;;;;;3.13;1.50;;;13.70;97.00;;;;;;7402053;19;19919;-45
2022/12/10 05:40:57;;;;;;;2.60;1.30;;;13.70;97.00;;;;;;7402217;19;19966;-43
2022/12/10 05:43:30;;;;;;;2.97;1.35;;;13.70;97.00;;;;;;7400840;19;19925;-43
2022/12/10 05:46:02;;;;;;;3.53;1.35;;;13.70;97.00;;;;;;7402087;19;19921;-42
2022/12/10 05:48:32;;;;;;;3.25;1.75;;;13.70;97.00;;;;;;7401846;19;19923;-44
2022/12/10 05:51:05;;;;;;;2.70;1.48;;;13.70;97.00;;;;;;7400458;19;19928;-45
2022/12/10 05:53:37;;;;;;;2.95;1.42;;;13.70;97.00;;;;;;7401468;19;19926;-43
2022/12/10 05:56:08;;;;;;;3.15;1.50;;;13.70;97.00;;;;;;7401468;19;20032;-44
2022/12/10 05:58:38;;;;;;;3.00;1.33;;;13.70;97.00;;;;;;7401818;19;19936;-42
2022/12/10 06:01:10;;;;;;;2.90;1.52;;;13.70;97.00;;;;;;7399022;19;19919;-42
2022/12/10 06:03:45;;;;;;;3.42;1.92;;;13.70;97.00;;;;;;7401031;19;19914;-42
2022/12/10 06:06:16;;;;;;;3.47;2.00;;;13.70;97.00;;;;;;7406815;19;19978;-43
2022/12/10 06:08:49;;;;;;;3.03;1.65;;;13.70;97.00;;;;;;7408166;19;20269;-42
2022/12/10 06:11:18;;;;;;;3.63;1.85;;;13.70;97.00;;;;;;7405454;19;19922;-42
2022/12/10 06:13:47;;;;;;;4.13;2.30;;;13.70;97.00;;;;;;7407800;19;19921;-41
2022/12/10 06:16:17;;;;;;;3.30;1.80;;;13.70;97.20;;;;;;7407873;19;19958;-42
2022/12/10 06:18:46;;;;;;;3.38;2.53;;;13.70;96.90;;;;;;7407695;19;19931;-43
2022/12/10 06:21:18;;;;;;;3.60;1.33;;;13.70;97.20;;;;;;7408306;19;19926;-42
2022/12/10 06:23:51;;;;;;;3.70;1.73;;;13.70;96.90;;;;;;7407705;19;19925;-42
2022/12/10 06:26:21;;;;;;;3.45;1.50;;;13.80;96.90;;;;;;7407233;19;20308;-43
2022/12/10 06:28:53;;;;;;;4.18;1.73;;;13.70;97.10;;;;;;7407316;19;20027;-42
2022/12/10 06:31:23;;;;;;;3.53;1.60;;;13.80;96.90;;;;;;7405374;19;19918;-42
2022/12/10 06:33:53;;;;;;;3.78;1.45;;;13.80;96.80;;;;;;7407690;19;19921;-43
2022/12/10 06:36:22;;;;;;;3.85;1.50;;;13.80;96.80;;;;;;7407473;19;19914;-44
2022/12/10 06:38:54;;;;;;;4.03;1.70;;;13.90;96.80;;;;;;7406708;19;19915;-42
2022/12/10 06:41:23;;;;;;;3.33;1.70;;;13.90;96.70;;;;;;7407053;19;20333;-42
2022/12/10 06:43:52;;;;;;;3.10;1.42;;;13.90;96.70;;;;;;7407372;19;19922;-43
2022/12/10 06:46:23;;;;;;;3.17;1.48;;;14.00;96.70;;;;;;7407387;19;19915;-42
2022/12/10 06:48:52;;;;;;;3.22;2.00;;;14.00;96.70;;;;;;7405134;19;19919;-42
2022/12/10 06:51:21;;;;;;;3.17;1.67;;;14.00;96.90;;;;;;7404738;19;19935;-42
2022/12/10 06:53:58;;;;;;;3.63;2.45;;;14.10;96.60;;;;;;7407049;19;19918;-42
2022/12/10 06:56:27;;;;;;;2.83;1.42;;;14.10;96.60;;;;;;7404937;19;19917;-44
2022/12/10 06:58:56;;;;;;;3.20;1.60;;;14.10;96.60;;;;;;7407055;19;20255;-43
2022/12/10 07:01:28;;;;;;;3.53;2.35;;;14.10;96.60;;;;;;7403787;19;19931;-43
2022/12/10 07:03:59;;;;;;;3.97;2.40;;;14.20;96.50;;;;;;7406630;19;19927;-42
2022/12/10 07:06:30;;;;;;;3.42;2.33;;;14.20;96.50;;;;;;7407606;19;19915;-42
2022/12/10 07:09:02;;;;;;;3.35;2.03;;;14.20;96.50;;;;;;7408112;19;20252;-43
2022/12/10 07:11:31;;;;;;;3.38;1.75;;;14.20;96.40;;;;;;7404414;19;20340;-43
2022/12/10 07:14:01;;;;;;;2.70;1.40;;;14.30;96.40;;;;;;7406520;19;20329;-43
2022/12/10 07:16:31;;;;;;;3.63;2.47;;;14.30;96.40;;;;;;7405104;19;19914;-42
2022/12/10 07:19:02;;;;;;;3.55;2.22;;;14.30;96.40;;;;;;7406001;19;19914;-42
2022/12/10 07:21:33;;;;;;;3.00;1.30;;;14.30;96.30;;;;;;7405926;19;19918;-43
2022/12/10 07:24:07;;;;;;;4.60;2.58;;;14.40;96.30;;;;;;7406091;19;19915;-41
2022/12/10 07:26:38;;;;;;;3.08;2.47;;;14.40;96.20;;;;;;7406075;19;19922;-42
2022/12/10 07:29:09;;;;;;;3.70;2.50;;;14.40;96.30;;;;;;7405767;19;19914;-42
2022/12/10 07:31:38;;;;;;;3.63;1.70;;;14.50;96.20;;;;;;7403635;19;19919;-42
2022/12/10 07:34:07;;;;;;;3.55;2.60;;;14.50;96.20;;;;;;7405905;19;19923;-43
2022/12/10 07:36:36;;;;;;;3.25;1.23;;;14.50;96.20;;;;;;7405878;19;19918;-43
2022/12/10 07:39:09;;;;;;;3.40;2.13;;;14.50;96.20;;;;;;7405694;19;19915;-43
2022/12/10 07:41:44;;;;;;;3.10;2.17;;;14.50;96.20;;;;;;7405090;19;19918;-40
2022/12/10 07:44:14;;;;;;;3.92;2.20;;;14.60;96.10;;;;;;7405546;19;19986;-42
2022/12/10 07:46:44;;;;;;;3.45;1.60;;;14.60;96.10;;;;;;7405693;19;19911;-43
2022/12/10 07:49:12;;;;;;;3.05;1.30;;;14.60;96.10;;;;;;7405505;19;19925;-43
2022/12/10 07:51:41;;;;;;;3.42;1.75;;;14.60;96.00;;;;;;7403897;19;20366;-44
2022/12/10 07:54:13;;;;;;;3.30;1.67;;;14.60;96.10;;;;;;7404908;19;20340;-44
2022/12/10 07:56:42;;;;;;;3.60;1.55;;;14.60;96.00;;;;;;7405321;19;20362;-43
2022/12/10 07:59:12;;;;;;;4.10;2.28;;;14.60;96.00;;;;;;7405296;19;19921;-43
2022/12/10 08:01:41;;;;;;;4.43;2.30;;;14.70;96.10;;;;;;7404604;19;19910;-46
2022/12/10 08:04:10;;;;;;;3.42;2.35;;;14.70;96.00;;;;;;7405103;19;19986;-43
2022/12/10 08:06:40;;;;;;;3.38;2.17;;;14.70;96.00;;;;;;7405986;19;19915;-42
2022/12/10 08:09:09;;;;;;;3.15;2.33;;;14.70;96.00;;;;;;7404854;19;19911;-43
2022/12/10 08:11:40;;;;;;;3.80;2.55;;;14.70;95.90;;;;;;7403331;19;19940;-43
2022/12/10 08:14:09;;;;;;;3.40;1.77;;;14.70;95.90;;;;;;7404901;19;19928;-43
2022/12/10 08:16:38;;;;;;;3.78;1.90;;;14.70;95.90;;;;;;7404144;19;19927;-42
2022/12/10 08:19:07;;;;;;;3.03;1.50;;;14.70;95.90;;;;;;7404165;19;19923;-42
2022/12/10 08:21:36;;;;;;;3.45;1.75;;;14.70;95.90;;;;;;7404554;19;19915;-42
2022/12/10 08:24:06;;;;;;;3.25;2.00;;;14.70;95.90;;;;;;7404634;19;19924;-44
2022/12/10 08:26:35;;;;;;;3.60;2.17;;;14.80;96.00;;;;;;7404269;19;19918;-45
2022/12/10 08:29:07;;;;;;;3.47;2.13;;;14.70;95.90;;;;;;7401890;19;19919;-42
2022/12/10 08:31:36;;;;;;;3.30;2.17;;;14.70;95.90;;;;;;7402427;19;20263;-43
2022/12/10 08:34:06;;;;;;;2.78;1.92;;;14.80;95.90;;;;;;7404043;19;19927;-43
2022/12/10 08:36:35;;;;;;;;;;;14.80;95.90;;;;;;7406337;19;19923;-44
2022/12/10 08:39:07;;;;;;;3.42;1.83;;;14.70;95.80;;;;;;7402583;19;19926;-43
2022/12/10 08:41:36;;;;;;;3.22;1.65;;;14.70;95.90;;;;;;7403208;19;19934;-43
2022/12/10 08:44:07;;;;;;;4.32;2.85;;;14.80;95.90;;;;;;7404068;19;19915;-42
2022/12/10 08:46:37;;;;;;;3.08;1.52;;;14.80;95.90;;;;;;7404042;19;19914;-44
2022/12/10 08:49:06;;;;;;;3.38;1.98;;;14.80;95.80;;;;;;7403950;19;19977;-42
2022/12/10 08:51:35;;;;;;;2.83;1.40;;;14.80;95.90;;;;;;7402612;19;19926;-41
2022/12/10 08:54:05;;;;;;;3.33;1.55;;;14.80;95.90;;;;;;7403450;19;19935;-42
2022/12/10 08:56:34;;;;;;;3.63;2.30;;;14.80;95.80;;;;;;7403416;19;20344;-42
2022/12/10 08:59:11;;;;;;;2.95;1.65;;;14.80;95.80;;;;;;7403468;19;19919;-42
2022/12/10 09:01:44;;;;;;;3.60;1.55;;;14.80;95.80;;;;;;7403022;19;19919;-43
2022/12/10 09:04:15;;;;;;;3.90;1.90;;;14.80;95.90;;;;;;7403202;19;19919;-43
2022/12/10 09:06:45;;;;;;;3.25;2.30;;;14.80;95.90;;;;;;7407312;19;20014;-44
2022/12/10 09:09:15;;;;;;;3.35;2.10;;;14.80;95.80;;;;;;7403232;19;19943;-43
2022/12/10 09:11:45;;;;;;;3.05;1.38;;;14.80;95.90;;;;;;7401923;19;20353;-42
2022/12/10 09:14:17;;;;;;;3.97;2.33;;;14.80;95.90;;;;;;7403954;19;19907;-43
2022/12/10 09:16:46;;;;;;;3.85;2.20;;;14.80;95.80;;;;;;7402996;19;19919;-43
2022/12/10 09:19:15;;;;;;;4.28;2.80;;;14.90;95.90;;;;;;7402592;19;19919;-42
2022/12/10 09:21:44;;;;;;;3.92;2.13;;;14.90;95.90;;;;;;7403218;19;19914;-44
2022/12/10 09:24:13;;;;;;;3.75;1.48;;;14.90;95.90;;;;;;7402852;19;19918;-43
2022/12/10 09:26:42;;;;;;;3.08;2.47;;;14.90;95.90;;;;;;7402831;19;19921;-42
2022/12/10 09:29:11;;;;;;;3.50;2.28;;;14.90;95.90;;;;;;7402323;19;19919;-43
2022/12/10 09:31:43;;;;;;;3.05;2.00;;;15.00;95.90;;;;;;7401362;19;19914;-42
2022/12/10 09:34:12;;;;;;;3.50;2.50;;;14.90;95.90;;;;;;7402593;19;19914;-42
2022/12/10 09:36:46;;;;;;;3.80;2.08;;;14.90;95.90;;;;;;7402539;19;19922;-43
2022/12/10 09:39:17;;;;;;;3.35;2.22;;;14.90;95.90;;;;;;7404965;19;19919;-43
2022/12/10 09:42:21;;;;;;;3.65;2.80;;;14.90;95.90;;;;;;7406328;19;19937;-44
2022/12/10 09:45:20;;;;;;;3.53;2.47;;;15.00;95.90;;;;;;7407389;19;19929;-42
2022/12/10 09:48:20;;;;;;;3.63;1.60;;;15.00;96.10;;;;;;7406893;19;19914;-43
2022/12/10 09:51:14;;;;;;;3.35;2.33;;;15.00;96.00;;;;;;7406268;19;19922;-43
2022/12/10 09:54:06;;;;;;;4.05;2.28;;;15.00;96.00;;;;;;7406988;19;19936;-42
2022/12/10 09:56:57;;;;;;;3.53;2.40;;;15.00;95.90;;;;;;7406594;19;19923;-43
2022/12/10 09:59:50;;;;;;;4.07;1.83;;;15.00;96.00;;;;;;7406072;19;19911;-42
2022/12/10 10:02:39;;;;;;;3.63;1.70;;;15.00;95.90;;;;;;7406522;19;20038;-42
2022/12/10 10:05:34;;;;;;;4.22;2.83;;;15.00;95.90;;;;;;7406579;19;19922;-43
2022/12/10 10:08:30;;;;;;;3.80;2.17;;;15.10;95.90;;;;;;7406350;19;19923;-42
2022/12/10 10:11:21;;;;;;;4.05;2.42;;;15.10;95.90;;;;;;7405487;19;19911;-41
2022/12/10 10:14:16;;;;;;;4.28;2.47;;;15.10;95.90;;;;;;7406110;19;19929;-42
2022/12/10 10:17:12;;;;;;;4.25;3.00;;;15.10;95.80;;;;;;7406242;19;19972;-42
2022/12/10 10:19:44;;;;;;;3.53;2.55;;;15.20;95.90;;;;;;7407567;19;19918;-43
2022/12/10 10:22:15;;;;;;;3.22;2.58;;;15.20;95.90;;;;;;7407905;19;19925;-43
2022/12/10 10:24:47;;;;;;;3.55;1.95;;;15.20;95.90;;;;;;7407852;19;20364;-44
2022/12/10 10:27:19;;;;;;;3.95;1.65;;;15.20;95.90;;;;;;7406460;19;19914;-46
2022/12/10 10:29:51;;;;;;;3.63;1.77;;;15.20;95.80;;;;;;7407736;19;19927;-46
2022/12/10 10:32:25;;;;;;;3.67;2.10;;;15.20;95.90;;;;;;7405454;19;20470;-42
2022/12/10 10:35:02;;;;;;;4.35;2.30;;;15.30;95.90;;;;;;7407899;19;19926;-42
2022/12/10 10:37:43;;;;;;;3.60;2.00;;;15.30;95.80;;;;;;7407227;19;20364;-44
2022/12/10 10:40:24;;;;;;;4.15;2.80;;;15.30;95.80;;;;;;7407671;19;19919;-43
2022/12/10 10:42:57;;;;;;;3.38;1.77;;;15.30;95.70;;;;;;7405725;19;20291;-42
2022/12/10 10:45:39;;;;;;;3.08;1.55;;;15.30;95.80;;;;;;7407056;19;19919;-44
2022/12/10 10:48:18;;;;;;;4.40;2.42;;;15.30;95.70;;;;;;7407429;19;19925;-43
2022/12/10 10:50:50;;;;;;;3.88;2.45;;;15.30;95.70;;;;;;7405280;19;20356;-43
2022/12/10 10:53:33;;;;;;;3.22;1.52;;;15.30;95.70;;;;;;7404029;19;20329;-42
2022/12/10 10:56:09;;;;;;;3.53;1.58;;;15.30;95.70;;;;;;7406572;19;19922;-42
2022/12/10 10:58:38;;;;;;;3.83;2.08;;;15.30;95.80;;;;;;7406568;19;20261;-43
2022/12/10 11:01:10;;;;;;;3.13;1.67;;;15.40;95.80;;;;;;7404527;19;19914;-43
2022/12/10 11:03:48;;;;;;;4.03;2.67;;;15.30;95.80;;;;;;7410176;19;19925;-42
2022/12/10 11:06:21;;;;;;;3.58;1.70;;;15.40;95.80;;;;;;7406715;19;19922;-42
2022/12/10 11:08:58;;;;;;;3.90;2.83;;;15.30;95.80;;;;;;7406705;19;19929;-43
2022/12/10 11:11:36;;;;;;;3.53;1.83;;;15.30;95.70;;;;;;7406119;19;20260;-44
2022/12/10 11:14:25;;;;;;;3.92;2.92;;;15.30;95.70;;;;;;7406253;19;19943;-42
2022/12/10 11:17:04;;;;;;;3.85;2.70;;;15.30;95.70;;;;;;7406344;19;19940;-43
2022/12/10 11:19:33;;;;;;;4.20;1.80;;;15.30;95.70;;;;;;7405981;19;19918;-43
2022/12/10 11:22:20;;;;;;;3.75;2.53;;;15.30;95.70;;;;;;7405929;19;19919;-42
2022/12/10 11:24:52;;;;;;;3.70;2.60;;;15.30;95.70;;;;;;7405762;19;19921;-43
2022/12/10 11:27:35;;;;;;;4.68;2.50;;;15.40;95.70;;;;;;7406605;19;19923;-43
2022/12/10 11:30:08;;;;;;;3.92;1.77;;;15.30;95.70;;;;;;7405768;19;19939;-43
2022/12/10 11:32:57;;;;;;;3.40;2.30;;;15.30;95.70;;;;;;7404230;19;19918;-43
2022/12/10 11:35:40;;;;;;;3.13;1.77;;;15.30;95.60;;;;;;7406091;19;19922;-43
2022/12/10 11:38:18;;;;;;;3.92;2.60;;;15.30;95.60;;;;;;7405960;19;19922;-42
2022/12/10 11:40:52;;;;;;;3.83;2.55;;;15.30;95.60;;;;;;7405505;19;20546;-42
2022/12/10 11:43:51;;;;;;;3.20;1.63;;;15.30;95.60;;;;;;7403835;19;19922;-45
2022/12/10 11:46:41;;;;;;;3.25;2.38;;;15.30;95.60;;;;;;7404066;19;20494;-42
2022/12/10 11:49:20;;;;;;;3.53;2.53;;;15.30;95.60;;;;;;7405109;19;19922;-42
2022/12/10 11:52:01;;;;;;;3.45;1.92;;;15.20;95.60;;;;;;7405095;19;20021;-41
2022/12/10 11:54:56;;;;;;;4.10;1.60;;;15.20;95.60;;;;;;7404966;19;19919;-43
2022/12/10 11:57:37;;;;;;;3.88;2.45;;;15.10;95.70;;;;;;7404912;19;19915;-43
2022/12/10 12:00:20;;;;;;;4.05;3.13;;;15.10;95.70;;;;;;7403824;19;20352;-43
2022/12/10 12:03:14;;;;;;;3.58;2.95;;;15.00;95.70;;;;;;7401320;19;19943;-43
2022/12/10 12:05:55;;;;;;;4.22;1.80;;;15.00;95.80;;;;;;7403479;19;19915;-42
2022/12/10 12:08:32;;;;;;;3.28;1.45;;;15.00;95.80;;;;;;7404417;19;19929;-44
2022/12/10 12:11:17;;;;;;;4.15;1.83;;;14.90;96.00;;;;;;7404975;19;19918;-43
2022/12/10 12:13:56;;;;;;;3.83;2.58;;;14.90;95.80;;;;;;7402568;19;20341;-42
2022/12/10 12:16:30;;;;;;;4.72;1.80;;;14.90;95.80;;;;;;7404690;19;20274;-42
2022/12/10 12:19:04;;;;;;;4.25;2.70;;;15.00;95.80;;;;;;7404473;19;19923;-42
2022/12/10 12:21:33;;;;;;;4.35;2.95;;;15.00;96.00;;;;;;7404319;19;19983;-42
2022/12/10 12:24:07;;;;;;;3.40;1.83;;;15.00;95.70;;;;;;7404627;19;19914;-43
2022/12/10 12:26:39;;;;;;;4.25;2.55;;;15.00;95.70;;;;;;7404559;19;19914;-42
2022/12/10 12:29:19;;;;;;;3.80;2.00;;;15.00;95.70;;;;;;7404321;19;20260;-43
2022/12/10 12:31:52;;;;;;;3.85;2.38;;;15.10;95.60;;;;;;7403352;19;19931;-42
2022/12/10 12:34:26;;;;;;;3.42;2.22;;;15.10;95.70;;;;;;7402435;19;19918;-42
2022/12/10 12:36:56;;;;;;;3.38;2.25;;;15.00;95.70;;;;;;7403994;19;19919;-43
2022/12/10 12:39:32;;;;;;;3.67;2.40;;;15.00;95.70;;;;;;7403777;19;20332;-42
2022/12/10 12:42:16;;;;;;;4.32;2.80;;;15.10;95.70;;;;;;7403219;19;19922;-42
2022/12/10 12:44:58;;;;;;;4.00;2.35;;;15.10;95.70;;;;;;7403706;19;19910;-42
2022/12/10 12:47:37;;;;;;;3.80;1.83;;;15.00;95.60;;;;;;7403458;19;19921;-43
2022/12/10 12:50:08;;;;;;;3.95;3.22;;;15.10;95.60;;;;;;7403475;19;19939;-43
2022/12/10 12:52:41;;;;;;;4.50;3.38;;;15.00;95.60;;;;;;7402606;19;19922;-42
2022/12/10 12:55:19;;;;;;;4.03;1.90;;;15.10;95.60;;;;;;7403475;19;19918;-43
2022/12/10 12:57:53;;;;;;;4.25;2.05;;;15.10;95.70;;;;;;7403018;19;20380;-44
2022/12/10 13:00:26;;;;;;;4.13;1.85;;;15.00;95.60;;;;;;7405162;19;19929;-45
2022/12/10 13:03:09;;;;;;;3.67;2.42;;;15.00;95.60;;;;;;7402787;19;19918;-43
2022/12/10 13:05:42;;;;;;;3.58;2.10;;;15.00;95.60;;;;;;7402896;19;19923;-42
2022/12/10 13:08:33;;;;;;;4.05;2.30;;;15.00;95.70;;;;;;7403028;19;19923;-43
2022/12/10 13:11:33;;;;;;;4.43;1.83;;;15.00;95.60;;;;;;7401420;19;19938;-43
2022/12/10 13:14:19;;;;;;;3.75;2.75;;;15.00;95.60;;;;;;7400135;19;19927;-43
2022/12/10 13:17:01;;;;;;;3.95;2.22;;;15.00;95.60;;;;;;7403079;19;19914;-43
2022/12/10 13:19:33;;;;;;;4.32;2.22;;;15.00;95.60;;;;;;7403052;19;20236;-43
2022/12/10 13:22:10;;;;;;;4.38;2.10;;;15.00;95.60;;;;;;7402867;19;19923;-43
2022/12/10 13:25:12;;;;;;;4.63;2.40;;;15.00;95.60;;;;;;7400883;19;20025;-42
2022/12/10 13:27:42;;;;;;;4.43;3.38;;;15.00;95.60;;;;;;7402648;19;19918;-43
2022/12/10 13:30:30;;;;;;;5.20;2.90;;;15.00;95.60;;;;;;7403188;19;19936;-45
2022/12/10 13:33:16;;;;;;;4.20;2.65;;;15.00;95.60;;;;;;7400913;19;19983;-43
2022/12/10 13:36:00;;;;;;;5.30;2.38;;;15.00;95.50;;;;;;7401894;19;19915;-42
2022/12/10 13:38:30;;;;;;;4.43;1.92;;;15.00;95.60;;;;;;7401714;19;19915;-43